Time;durP1;ratioP1;P1;durP2;ratioP2;P2;SDS_P1;SDS_P2;PMS_P1;PMS_P2;Temp;Humidity;BMP_temperature;BMP_pressure;BME280_temperature;BME280_humidity;BME280_pressure;Samples;Min_cycle;Max_cycle;Signal;HPM_P1;HPM_P2
2022/08/05 00:01:44;;;;;;;1.10;1.00;;;24.40;66.50;;;;;;6211595;22;44939;-63
2022/08/05 00:04:18;;;;;;;0.60;0.60;;;24.40;66.40;;;;;;6212254;22;43868;-64
2022/08/05 00:06:47;;;;;;;1.20;0.95;;;24.40;66.40;;;;;;6212913;22;43256;-63
2022/08/05 00:09:18;;;;;;;1.13;1.10;;;24.40;66.50;;;;;;6212083;22;43341;-64
2022/08/05 00:11:48;;;;;;;1.00;0.95;;;24.40;66.50;;;;;;6212324;22;43703;-64
2022/08/05 00:14:26;;;;;;;1.00;0.70;;;24.30;66.40;;;;;;6211599;22;43259;-63
2022/08/05 00:16:57;;;;;;;0.80;0.80;;;24.40;66.50;;;;;;6213387;22;43294;-63
2022/08/05 00:19:28;;;;;;;1.00;0.80;;;24.40;66.50;;;;;;6212743;22;43391;-63
2022/08/05 00:22:07;;;;;;;0.80;0.80;;;24.40;66.40;;;;;;6211504;22;43775;-63
2022/08/05 00:24:37;;;;;;;;;;;24.30;66.40;;;;;;6213287;22;43185;-63
2022/08/05 00:27:08;;;;;;;;;;;24.30;66.40;;;;;;6213349;22;43233;-63
2022/08/05 00:29:40;;;;;;;0.65;0.65;;;24.30;67.10;;;;;;6151637;23;43384;-63
2022/08/05 00:32:11;;;;;;;0.70;0.70;;;24.30;66.50;;;;;;6152152;23;44628;-63
2022/08/05 00:34:45;;;;;;;1.50;1.00;;;24.30;66.50;;;;;;6150520;23;43748;-63
2022/08/05 00:37:33;;;;;;;1.00;0.98;;;24.30;66.40;;;;;;6151711;23;43373;-64
2022/08/05 00:40:22;;;;;;;1.10;1.00;;;24.30;66.40;;;;;;6152087;23;43400;-64
2022/08/05 00:42:57;;;;;;;0.80;0.80;;;24.30;66.40;;;;;;6151627;23;44026;-63
2022/08/05 00:45:24;;;;;;;0.90;0.90;;;24.30;66.40;;;;;;6152143;23;43925;-64
2022/08/05 00:48:09;;;;;;;1.55;1.08;;;24.30;66.40;;;;;;6152087;23;43376;-64
2022/08/05 00:50:39;;;;;;;0.80;0.80;;;24.30;67.10;;;;;;6151416;23;43356;-63
2022/08/05 00:53:08;;;;;;;1.05;0.80;;;24.30;66.40;;;;;;6151857;23;45216;-63
2022/08/05 00:55:56;;;;;;;0.90;0.80;;;24.30;66.40;;;;;;6152516;23;44767;-64
2022/08/05 00:58:23;;;;;;;0.98;0.85;;;24.30;66.40;;;;;;6151320;23;43280;-63
2022/08/05 01:00:54;;;;;;;0.80;0.80;;;24.30;66.40;;;;;;6152417;23;43279;-63
2022/08/05 01:03:23;;;;;;;0.80;0.70;;;24.20;66.40;;;;;;6150944;23;44644;-64
2022/08/05 01:05:57;;;;;;;0.60;0.60;;;24.20;66.40;;;;;;6153466;23;43830;-63
2022/08/05 01:08:24;;;;;;;1.00;0.85;;;24.20;66.40;;;;;;6153494;23;43849;-63
2022/08/05 01:11:18;;;;;;;0.77;0.70;;;24.20;66.40;;;;;;6152311;23;43396;-63
2022/08/05 01:13:56;;;;;;;0.70;0.70;;;24.20;66.40;;;;;;6152922;23;43748;-63
2022/08/05 01:16:29;;;;;;;0.93;0.93;;;24.20;66.40;;;;;;6152967;23;43220;-63
2022/08/05 01:19:16;;;;;;;0.80;0.80;;;24.20;66.30;;;;;;6153220;23;43256;-64
2022/08/05 01:21:57;;;;;;;1.27;0.75;;;24.20;66.40;;;;;;6151853;23;43433;-63
2022/08/05 01:24:33;;;;;;;0.80;0.73;;;24.20;66.40;;;;;;6152531;23;44870;-63
2022/08/05 01:27:37;;;;;;;1.35;1.10;;;24.20;66.50;;;;;;6151881;23;43966;-64
2022/08/05 01:30:23;;;;;;;0.60;0.60;;;24.20;66.30;;;;;;6183418;22;43201;-64
2022/08/05 01:33:05;;;;;;;0.65;0.65;;;24.10;66.30;;;;;;6182648;22;43261;-64
2022/08/05 01:35:39;;;;;;;1.45;0.60;;;24.20;66.30;;;;;;6182960;22;44908;-64
2022/08/05 01:38:51;;;;;;;0.70;0.70;;;24.20;66.30;;;;;;6182604;22;43271;-62
2022/08/05 01:41:21;;;;;;;0.70;0.70;;;24.10;66.30;;;;;;6182904;22;43236;-64
2022/08/05 01:43:53;;;;;;;1.77;0.90;;;24.10;66.30;;;;;;6183309;22;43342;-63
2022/08/05 01:46:22;;;;;;;1.27;0.80;;;24.10;66.30;;;;;;6181958;22;43753;-64
2022/08/05 01:49:13;;;;;;;0.70;0.70;;;24.10;66.30;;;;;;6182886;23;43719;-62
2022/08/05 01:51:58;;;;;;;;;;;24.10;66.30;;;;;;6183638;22;43216;-64
2022/08/05 01:54:50;;;;;;;1.55;0.88;;;24.10;66.30;;;;;;6182242;22;43209;-63
2022/08/05 01:57:28;;;;;;;1.02;0.73;;;24.10;66.30;;;;;;6183001;22;44680;-63
2022/08/05 02:00:16;;;;;;;0.80;0.80;;;24.10;66.30;;;;;;6181763;22;43320;-63
2022/08/05 02:02:54;;;;;;;0.98;0.80;;;24.10;66.30;;;;;;6183294;23;43283;-63
2022/08/05 02:05:30;;;;;;;1.13;0.75;;;24.10;66.30;;;;;;6183858;22;43561;-64
2022/08/05 02:08:00;;;;;;;0.85;0.85;;;24.10;66.30;;;;;;6182450;22;43945;-64
2022/08/05 02:10:35;;;;;;;0.77;0.77;;;24.10;66.30;;;;;;6182960;22;43820;-63
2022/08/05 02:13:16;;;;;;;0.60;0.60;;;24.10;66.30;;;;;;6182828;22;43274;-64
2022/08/05 02:15:57;;;;;;;0.85;0.80;;;24.10;66.30;;;;;;6182179;22;43378;-63
2022/08/05 02:18:48;;;;;;;0.63;0.63;;;24.10;66.30;;;;;;6182880;22;44861;-63
2022/08/05 02:21:20;;;;;;;0.70;0.70;;;24.10;66.30;;;;;;6173392;22;43190;-63
2022/08/05 02:23:52;;;;;;;0.80;0.65;;;24.00;66.20;;;;;;6182931;22;43222;-64
2022/08/05 02:26:38;;;;;;;0.70;0.70;;;24.10;66.30;;;;;;6182893;23;43395;-64
2022/08/05 02:29:29;;;;;;;1.15;0.82;;;24.10;66.30;;;;;;6209099;22;44915;-63
2022/08/05 02:32:20;;;;;;;0.68;0.68;;;24.00;66.30;;;;;;6213043;22;43547;-63
2022/08/05 02:35:02;;;;;;;0.80;0.80;;;24.00;66.30;;;;;;6212720;22;43281;-63
2022/08/05 02:37:45;;;;;;;0.60;0.60;;;24.00;66.30;;;;;;6213123;22;43328;-63
2022/08/05 02:40:21;;;;;;;0.90;0.90;;;24.00;66.30;;;;;;6212777;22;44978;-63
2022/08/05 02:42:52;;;;;;;0.80;0.80;;;24.00;66.30;;;;;;6212226;22;43935;-63
2022/08/05 02:45:22;;;;;;;1.10;0.80;;;24.00;66.30;;;;;;6213319;22;43398;-63
2022/08/05 02:47:53;;;;;;;0.70;0.70;;;24.00;66.30;;;;;;6213374;22;43345;-64
2022/08/05 02:50:37;;;;;;;0.70;0.70;;;24.00;66.30;;;;;;6212325;22;44954;-63
2022/08/05 02:53:11;;;;;;;0.65;0.65;;;24.00;66.30;;;;;;6213032;22;43741;-63
2022/08/05 02:55:51;;;;;;;0.63;0.63;;;24.00;66.30;;;;;;6213379;22;43248;-63
2022/08/05 02:58:27;;;;;;;0.70;0.70;;;24.00;66.30;;;;;;6213504;22;43241;-63
2022/08/05 03:01:01;;;;;;;0.73;0.73;;;24.00;66.40;;;;;;6213403;22;44907;-63
2022/08/05 03:03:30;;;;;;;0.98;0.75;;;23.90;66.30;;;;;;6212166;22;43296;-63
2022/08/05 03:06:01;;;;;;;0.77;0.70;;;23.90;66.30;;;;;;6213820;22;43217;-64
2022/08/05 03:08:49;;;;;;;0.63;0.60;;;23.90;66.30;;;;;;6213576;22;43380;-63
2022/08/05 03:11:23;;;;;;;1.20;0.90;;;23.90;66.30;;;;;;6211921;22;44820;-63
2022/08/05 03:14:11;;;;;;;0.70;0.70;;;23.90;66.30;;;;;;6212601;22;43658;-63
2022/08/05 03:16:40;;;;;;;0.73;0.73;;;23.90;66.30;;;;;;6212999;22;43284;-63
2022/08/05 03:19:07;;;;;;;0.50;0.50;;;23.90;66.40;;;;;;6212547;22;43473;-62
2022/08/05 03:21:46;;;;;;;1.33;1.00;;;23.90;66.40;;;;;;6213007;22;44757;-64
2022/08/05 03:24:19;;;;;;;0.70;0.70;;;23.90;66.30;;;;;;6211578;22;43684;-64
2022/08/05 03:26:58;;;;;;;0.80;0.80;;;23.90;66.30;;;;;;6213278;22;43188;-63
2022/08/05 03:29:26;;;;;;;0.70;0.70;;;23.90;66.30;;;;;;6213057;22;43286;-63
2022/08/05 03:32:15;;;;;;;0.70;0.70;;;23.90;66.30;;;;;;6212030;22;44736;-64
2022/08/05 03:34:43;;;;;;;0.50;0.50;;;23.90;66.30;;;;;;6212824;22;43918;-64
2022/08/05 03:37:22;;;;;;;0.57;0.57;;;23.80;66.30;;;;;;6213012;22;43300;-63
2022/08/05 03:39:57;;;;;;;0.70;0.70;;;23.90;66.30;;;;;;6212089;22;43411;-64
2022/08/05 03:42:30;;;;;;;0.50;0.50;;;23.90;66.30;;;;;;6212396;22;43752;-64
2022/08/05 03:45:08;;;;;;;0.45;0.45;;;23.80;66.30;;;;;;6211893;22;43679;-63
2022/08/05 03:47:50;;;;;;;0.82;0.70;;;23.80;66.30;;;;;;6212899;22;43213;-63
2022/08/05 03:50:23;;;;;;;0.57;0.57;;;23.80;66.30;;;;;;6212647;22;43366;-64
2022/08/05 03:53:02;;;;;;;0.60;0.60;;;23.80;66.30;;;;;;6211647;22;44735;-63
2022/08/05 03:56:05;;;;;;;0.77;0.65;;;23.80;66.30;;;;;;6212814;22;43731;-63
2022/08/05 03:58:41;;;;;;;0.63;0.63;;;23.80;66.40;;;;;;6212879;22;43236;-64
2022/08/05 04:01:12;;;;;;;0.80;0.77;;;23.80;66.40;;;;;;6211926;22;43340;-63
2022/08/05 04:03:43;;;;;;;0.60;0.60;;;23.80;66.40;;;;;;6212319;22;45084;-63
2022/08/05 04:06:33;;;;;;;0.93;0.55;;;23.80;66.40;;;;;;6211708;22;43925;-63
2022/08/05 04:09:02;;;;;;;;;;;23.80;66.40;;;;;;6213611;22;43195;-62
2022/08/05 04:11:34;;;;;;;0.50;0.50;;;23.70;66.30;;;;;;6212611;22;43248;-63
2022/08/05 04:14:18;;;;;;;0.65;0.65;;;23.70;66.40;;;;;;6210358;22;44663;-63
2022/08/05 04:16:58;;;;;;;0.50;0.50;;;23.70;66.40;;;;;;6213103;22;43928;-63
2022/08/05 04:19:29;;;;;;;1.10;0.70;;;23.80;66.40;;;;;;6212761;22;43223;-63
2022/08/05 04:21:57;;;;;;;0.63;0.63;;;23.80;66.40;;;;;;6212391;22;43723;-64
2022/08/05 04:24:44;;;;;;;0.85;0.70;;;23.70;66.30;;;;;;6212454;22;43753;-63
2022/08/05 04:27:19;;;;;;;0.50;0.50;;;23.80;66.40;;;;;;6211362;22;43913;-63
2022/08/05 04:30:08;;;;;;;0.60;0.60;;;23.80;66.40;;;;;;6212361;22;43307;-64
2022/08/05 04:32:36;;;;;;;0.60;0.60;;;23.70;66.40;;;;;;6212641;22;43387;-63
2022/08/05 04:35:04;;;;;;;0.70;0.57;;;23.70;66.40;;;;;;6211464;22;44709;-64
2022/08/05 04:37:32;;;;;;;0.60;0.60;;;23.70;67.00;;;;;;6212053;22;43645;-63
2022/08/05 04:40:19;;;;;;;0.60;0.60;;;23.70;66.40;;;;;;6211690;22;43264;-63
2022/08/05 04:42:47;;;;;;;0.70;0.70;;;23.70;66.40;;;;;;6211821;22;43373;-63
2022/08/05 04:45:14;;;;;;;0.95;0.65;;;23.70;66.40;;;;;;6212063;22;44912;-64
2022/08/05 04:48:04;;;;;;;0.93;0.70;;;23.70;66.40;;;;;;6212742;22;43663;-64
2022/08/05 04:50:45;;;;;;;0.60;0.60;;;23.70;66.40;;;;;;6211558;22;43253;-63
2022/08/05 04:53:32;;;;;;;0.50;0.50;;;23.70;66.30;;;;;;6212185;22;43306;-64
2022/08/05 04:56:02;;;;;;;0.55;0.55;;;23.70;66.40;;;;;;6211540;22;44307;-64
2022/08/05 04:58:49;;;;;;;0.50;0.50;;;23.70;66.40;;;;;;6212404;22;43340;-64
2022/08/05 05:01:18;;;;;;;0.50;0.50;;;23.60;66.30;;;;;;6212239;22;43780;-64
2022/08/05 05:04:06;;;;;;;0.60;0.60;;;23.60;66.30;;;;;;6211458;22;43497;-63
2022/08/05 05:06:33;;;;;;;0.68;0.68;;;23.60;66.30;;;;;;6185733;22;44966;-63
2022/08/05 05:09:11;;;;;;;0.40;0.40;;;23.60;66.40;;;;;;6212082;22;43277;-64
2022/08/05 05:11:43;;;;;;;0.77;0.52;;;23.60;66.40;;;;;;6211476;22;43233;-64
2022/08/05 05:14:22;;;;;;;0.50;0.50;;;23.60;66.30;;;;;;6211803;22;43336;-63
2022/08/05 05:16:59;;;;;;;0.82;0.82;;;23.60;66.30;;;;;;6211680;22;44654;-63
2022/08/05 05:19:27;;;;;;;1.05;0.63;;;23.60;66.30;;;;;;6211759;22;43693;-63
2022/08/05 05:22:12;;;;;;;0.57;0.55;;;23.60;66.30;;;;;;6212259;22;43289;-63
2022/08/05 05:24:56;;;;;;;0.95;0.70;;;23.60;66.40;;;;;;6211703;22;43336;-64
2022/08/05 05:27:31;;;;;;;0.57;0.50;;;23.60;66.30;;;;;;6211742;22;44963;-63
2022/08/05 05:30:15;;;;;;;1.10;0.60;;;23.60;66.30;;;;;;6211567;22;43194;-62
2022/08/05 05:32:58;;;;;;;0.60;0.60;;;23.60;66.30;;;;;;6188495;22;43276;-63
2022/08/05 05:35:45;;;;;;;0.40;0.40;;;23.50;66.30;;;;;;6212140;22;43513;-63
2022/08/05 05:38:15;;;;;;;0.43;0.43;;;23.60;66.40;;;;;;6211061;22;44684;-63
2022/08/05 05:40:56;;;;;;;0.73;0.68;;;23.60;66.30;;;;;;6211946;22;43892;-63
2022/08/05 05:43:24;;;;;;;0.40;0.40;;;23.60;66.40;;;;;;6212161;22;43245;-63
2022/08/05 05:46:11;;;;;;;0.43;0.40;;;23.60;66.40;;;;;;6211123;22;43723;-63
2022/08/05 05:48:45;;;;;;;0.38;0.38;;;23.50;66.40;;;;;;6211743;22;44007;-63
2022/08/05 05:51:24;;;;;;;0.63;0.63;;;23.50;66.40;;;;;;6210914;22;43283;-64
2022/08/05 05:53:56;;;;;;;0.50;0.50;;;23.60;66.40;;;;;;6212573;22;43209;-63
2022/08/05 05:56:31;;;;;;;0.70;0.70;;;23.50;66.40;;;;;;6213593;22;43227;-63
2022/08/05 05:59:02;;;;;;;0.60;0.60;;;23.60;66.40;;;;;;6212758;22;43849;-63
2022/08/05 06:01:35;;;;;;;;;;;23.50;66.40;;;;;;6213565;22;43256;-64
2022/08/05 06:04:09;;;;;;;0.43;0.43;;;23.50;66.40;;;;;;6213242;22;43250;-63
2022/08/05 06:06:41;;;;;;;0.65;0.57;;;23.50;66.40;;;;;;6212878;22;43387;-63
2022/08/05 06:09:09;;;;;;;0.60;0.60;;;23.60;66.50;;;;;;6213263;22;44934;-63
2022/08/05 06:11:54;;;;;;;0.60;0.60;;;23.60;66.50;;;;;;6213206;22;43633;-63
2022/08/05 06:14:29;;;;;;;0.47;0.47;;;23.60;67.20;;;;;;6212381;22;43312;-64
2022/08/05 06:16:58;;;;;;;0.50;0.50;;;23.50;66.50;;;;;;6213681;22;43431;-64
2022/08/05 06:19:45;;;;;;;0.50;0.50;;;23.50;66.50;;;;;;6213006;22;44659;-64
2022/08/05 06:22:27;;;;;;;1.02;0.60;;;23.50;66.50;;;;;;6213025;22;43220;-63
2022/08/05 06:24:55;;;;;;;0.50;0.50;;;23.50;66.50;;;;;;6213471;22;43280;-63
2022/08/05 06:27:22;;;;;;;1.23;0.50;;;23.50;66.50;;;;;;6212508;22;43775;-62
2022/08/05 06:30:14;;;;;;;0.60;0.60;;;23.50;66.40;;;;;;6212756;22;43742;-64
2022/08/05 06:32:47;;;;;;;0.55;0.50;;;23.50;66.40;;;;;;6213031;22;43923;-64
2022/08/05 06:35:17;;;;;;;0.50;0.50;;;23.50;66.40;;;;;;6212122;22;43333;-63
2022/08/05 06:38:05;;;;;;;0.40;0.40;;;23.50;66.30;;;;;;6213059;22;43244;-63
2022/08/05 06:40:41;;;;;;;0.50;0.50;;;23.50;66.30;;;;;;6213071;22;44966;-63
2022/08/05 06:43:12;;;;;;;0.55;0.47;;;23.50;66.30;;;;;;6212143;22;43638;-64
2022/08/05 06:45:59;;;;;;;0.60;0.60;;;23.50;66.30;;;;;;6213681;22;43282;-63
2022/08/05 06:48:34;;;;;;;0.52;0.52;;;23.50;66.30;;;;;;6212303;22;43328;-64
2022/08/05 06:51:22;;;;;;;1.20;0.55;;;23.50;66.20;;;;;;6212919;22;44875;-64
2022/08/05 06:54:01;;;;;;;0.50;0.50;;;23.50;66.30;;;;;;6213073;22;43748;-60
2022/08/05 06:56:30;;;;;;;0.47;0.40;;;23.50;66.30;;;;;;6212301;22;43262;-65
2022/08/05 06:59:04;;;;;;;1.23;0.50;;;23.50;66.40;;;;;;6213321;22;43229;-64
2022/08/05 07:01:35;;;;;;;0.88;0.50;;;23.50;66.30;;;;;;6212616;22;44903;-65
2022/08/05 07:04:07;;;;;;;1.20;0.40;;;23.50;66.30;;;;;;6211795;22;43236;-65
2022/08/05 07:06:34;;;;;;;1.02;0.60;;;23.50;66.30;;;;;;6212932;22;43570;-65
2022/08/05 07:09:03;;;;;;;0.98;0.60;;;23.50;66.30;;;;;;6213317;22;43400;-64
2022/08/05 07:11:33;;;;;;;0.50;0.50;;;23.50;66.20;;;;;;6212407;22;44894;-65
2022/08/05 07:17:01;;;;;;;0.50;0.50;;;23.50;66.20;;;;;;6212672;22;43249;-65
2022/08/05 07:19:52;;;;;;;0.40;0.40;;;23.50;66.10;;;;;;6185924;22;43244;-65
2022/08/05 07:22:39;;;;;;;0.52;0.52;;;23.50;66.20;;;;;;6212693;22;43766;-65
2022/08/05 07:25:08;;;;;;;1.13;0.50;;;23.50;66.20;;;;;;6211844;22;43231;-65
2022/08/05 07:27:56;;;;;;;0.47;0.47;;;23.50;66.20;;;;;;6213263;22;43288;-65
2022/08/05 07:30:35;;;;;;;0.60;0.47;;;23.50;66.10;;;;;;6212146;22;43312;-65
2022/08/05 07:33:08;;;;;;;1.13;0.60;;;23.50;66.10;;;;;;6212874;22;45052;-65
2022/08/05 07:35:42;;;;;;;0.50;0.50;;;23.50;66.10;;;;;;6212710;22;43929;-65
2022/08/05 07:38:29;;;;;;;0.40;0.40;;;23.50;66.10;;;;;;6212096;22;43250;-65
2022/08/05 07:41:05;;;;;;;0.63;0.60;;;23.50;66.10;;;;;;6212996;22;43391;-65
2022/08/05 07:43:54;;;;;;;0.60;0.60;;;23.50;66.20;;;;;;6212977;22;44933;-64
2022/08/05 07:46:28;;;;;;;0.50;0.50;;;23.50;66.10;;;;;;6211571;22;43291;-65
2022/08/05 07:48:59;;;;;;;0.68;0.60;;;23.50;66.10;;;;;;6213105;22;43238;-64
2022/08/05 07:51:33;;;;;;;0.60;0.60;;;23.50;66.10;;;;;;6212171;22;43757;-65
2022/08/05 07:54:20;;;;;;;0.85;0.50;;;23.50;66.10;;;;;;6185371;22;44917;-65
2022/08/05 07:56:53;;;;;;;0.70;0.70;;;23.50;66.10;;;;;;6213107;22;43654;-61
2022/08/05 07:59:41;;;;;;;1.75;0.55;;;23.50;66.30;;;;;;6212340;22;43295;-64
2022/08/05 08:02:09;;;;;;;0.98;0.50;;;23.50;66.20;;;;;;6212804;22;43332;-64
2022/08/05 08:04:46;;;;;;;0.68;0.63;;;23.50;66.20;;;;;;6212793;22;44028;-63
2022/08/05 08:07:17;;;;;;;0.52;0.50;;;23.50;66.30;;;;;;6212011;22;43660;-63
2022/08/05 08:09:51;;;;;;;0.40;0.40;;;23.50;66.20;;;;;;6212682;22;43282;-64
2022/08/05 08:12:22;;;;;;;0.95;0.82;;;23.50;66.20;;;;;;6212748;22;43300;-64
2022/08/05 08:15:08;;;;;;;0.70;0.60;;;23.60;66.20;;;;;;6188520;22;44845;-64
2022/08/05 08:17:45;;;;;;;0.60;0.60;;;23.50;66.20;;;;;;6212990;22;43819;-64
2022/08/05 08:20:23;;;;;;;0.60;0.60;;;23.60;66.20;;;;;;6211681;22;43227;-63
2022/08/05 08:23:11;;;;;;;0.60;0.60;;;23.60;66.20;;;;;;6212998;22;43755;-63
2022/08/05 08:25:58;;;;;;;1.02;0.70;;;23.50;66.20;;;;;;6212697;22;44787;-64
2022/08/05 08:28:32;;;;;;;1.75;0.65;;;23.50;66.10;;;;;;6211802;22;43227;-64
2022/08/05 08:31:17;;;;;;;1.02;0.57;;;23.50;66.10;;;;;;6212844;22;43285;-63
2022/08/05 08:33:45;;;;;;;0.63;0.63;;;23.50;66.10;;;;;;6212191;22;43353;-64
2022/08/05 08:36:18;;;;;;;0.47;0.47;;;23.60;66.10;;;;;;6212437;22;44973;-64
2022/08/05 08:39:06;;;;;;;0.63;0.47;;;23.60;66.10;;;;;;6212518;22;43948;-63
2022/08/05 08:41:43;;;;;;;0.60;0.52;;;23.60;66.10;;;;;;6212265;22;43185;-64
2022/08/05 08:44:29;;;;;;;0.50;0.50;;;23.60;66.10;;;;;;6212288;22;43248;-64
2022/08/05 08:47:20;;;;;;;0.75;0.47;;;23.60;66.10;;;;;;6212110;22;43771;-63
2022/08/05 08:50:10;;;;;;;;;;;23.60;66.10;;;;;;6190852;22;43224;-64
2022/08/05 08:53:07;;;;;;;1.30;0.70;;;23.60;66.10;;;;;;6209652;22;43339;-63
2022/08/05 08:55:39;;;;;;;0.50;0.50;;;23.50;66.20;;;;;;6209853;22;43692;-64
2022/08/05 08:58:27;;;;;;;0.98;0.60;;;23.50;66.20;;;;;;6208126;22;45071;-64
2022/08/05 09:01:11;;;;;;;0.80;0.57;;;23.60;66.20;;;;;;6208908;22;43907;-64
2022/08/05 09:03:51;;;;;;;0.45;0.40;;;23.60;66.20;;;;;;6211361;22;43274;-63
2022/08/05 09:06:25;;;;;;;;;;;23.60;66.10;;;;;;6212733;22;43361;-63
2022/08/05 09:09:00;;;;;;;0.50;0.50;;;23.60;66.20;;;;;;6211631;22;44246;-64
2022/08/05 09:11:31;;;;;;;0.50;0.50;;;23.60;66.10;;;;;;6211247;22;44134;-64
2022/08/05 09:14:20;;;;;;;0.60;0.52;;;23.60;66.10;;;;;;6211392;22;43387;-64
2022/08/05 09:17:11;;;;;;;0.55;0.55;;;23.60;66.10;;;;;;6211830;22;43293;-63
2022/08/05 09:19:59;;;;;;;0.57;0.57;;;23.60;66.10;;;;;;6212226;22;44744;-63
2022/08/05 09:23:06;;;;;;;0.95;0.70;;;23.60;66.00;;;;;;6212046;22;44038;-63
2022/08/05 09:25:40;;;;;;;0.50;0.50;;;23.60;66.00;;;;;;6212313;22;43329;-63
2022/08/05 09:28:28;;;;;;;1.05;0.50;;;23.60;66.00;;;;;;6213337;22;43272;-62
2022/08/05 09:31:05;;;;;;;0.45;0.45;;;23.60;65.80;;;;;;6212929;22;44894;-62
2022/08/05 09:33:54;;;;;;;0.57;0.50;;;23.60;65.70;;;;;;6213771;22;43626;-63
2022/08/05 09:36:24;;;;;;;0.73;0.43;;;23.60;65.90;;;;;;6212917;22;43244;-62
2022/08/05 09:38:59;;;;;;;0.75;0.50;;;23.60;65.70;;;;;;6213039;22;43240;-62
2022/08/05 09:41:29;;;;;;;1.48;0.60;;;23.70;65.80;;;;;;6213228;22;44639;-63
2022/08/05 09:44:05;;;;;;;0.55;0.50;;;23.60;65.70;;;;;;6187129;22;43664;-63
2022/08/05 09:46:33;;;;;;;0.70;0.70;;;23.70;65.80;;;;;;6213127;22;43258;-63
2022/08/05 09:49:06;;;;;;;1.23;0.70;;;23.70;65.70;;;;;;6213696;22;43279;-62
2022/08/05 09:51:46;;;;;;;0.60;0.60;;;23.60;65.50;;;;;;6212372;22;43738;-63
2022/08/05 09:54:28;;;;;;;0.50;0.50;;;23.70;65.40;;;;;;6213148;22;43269;-63
2022/08/05 09:56:56;;;;;;;1.23;0.50;;;23.60;65.80;;;;;;6213695;22;43252;-64
2022/08/05 09:59:28;;;;;;;0.45;0.40;;;23.60;65.60;;;;;;6212770;22;43224;-62
2022/08/05 10:02:04;;;;;;;0.70;0.50;;;23.60;65.80;;;;;;6213271;22;43767;-63
2022/08/05 10:04:38;;;;;;;0.55;0.50;;;23.60;65.50;;;;;;6212961;22;43930;-63
2022/08/05 10:07:07;;;;;;;0.57;0.50;;;23.60;65.20;;;;;;6212520;22;43232;-63
2022/08/05 10:09:55;;;;;;;0.93;0.43;;;23.60;65.30;;;;;;6209980;22;43307;-63
2022/08/05 10:12:57;;;;;;;0.50;0.50;;;23.70;65.30;;;;;;6211145;22;43724;-63
2022/08/05 10:15:28;;;;;;;0.40;0.38;;;23.70;65.10;;;;;;6212225;22;43917;-63
2022/08/05 10:18:14;;;;;;;0.50;0.40;;;23.80;65.30;;;;;;6212979;22;43229;-62
2022/08/05 10:20:49;;;;;;;1.38;0.50;;;23.80;65.20;;;;;;6210486;22;43443;-62
2022/08/05 10:23:32;;;;;;;1.27;0.40;;;23.80;65.00;;;;;;6212287;22;44903;-62
2022/08/05 10:26:20;;;;;;;0.85;0.63;;;23.80;65.10;;;;;;6211373;22;43907;-63
2022/08/05 10:28:59;;;;;;;1.30;0.70;;;23.80;65.00;;;;;;6212519;22;43307;-62
2022/08/05 10:31:27;;;;;;;0.88;0.40;;;23.80;64.90;;;;;;6212367;22;43197;-62
2022/08/05 10:34:14;;;;;;;0.43;0.32;;;23.80;64.60;;;;;;6189165;22;44683;-62
2022/08/05 10:36:44;;;;;;;0.43;0.43;;;23.80;64.60;;;;;;6211651;22;43930;-62
2022/08/05 10:39:23;;;;;;;1.30;0.50;;;23.80;64.80;;;;;;6212252;22;43318;-62
2022/08/05 10:42:15;;;;;;;0.32;0.30;;;23.80;64.90;;;;;;6211002;22;43276;-62
2022/08/05 10:44:50;;;;;;;0.40;0.40;;;23.80;65.00;;;;;;6209845;22;44512;-62
2022/08/05 10:47:17;;;;;;;0.60;0.60;;;23.90;64.90;;;;;;6211443;22;43926;-62
2022/08/05 10:50:08;;;;;;;0.50;0.50;;;23.90;64.50;;;;;;6212159;22;43264;-62
2022/08/05 10:52:56;;;;;;;0.50;0.50;;;23.90;64.80;;;;;;6212517;22;43326;-62
2022/08/05 10:55:25;;;;;;;1.23;0.60;;;23.90;64.80;;;;;;6210937;22;44861;-62
2022/08/05 10:58:07;;;;;;;0.63;0.40;;;23.90;64.80;;;;;;6212296;22;43617;-62
2022/08/05 11:00:37;;;;;;;0.50;0.50;;;23.90;64.80;;;;;;6212654;22;43261;-62
2022/08/05 11:03:11;;;;;;;1.17;0.60;;;23.90;64.70;;;;;;6212050;22;43317;-63
2022/08/05 11:06:12;;;;;;;0.82;0.40;;;23.90;64.90;;;;;;6188729;22;44702;-62
2022/08/05 11:09:17;;;;;;;0.47;0.35;;;23.90;64.60;;;;;;6211695;22;43768;-62
2022/08/05 11:12:25;;;;;;;1.10;0.50;;;24.00;64.40;;;;;;6212251;22;43249;-62
2022/08/05 11:15:14;;;;;;;0.40;0.40;;;24.00;64.40;;;;;;6212554;22;43262;-63
2022/08/05 11:17:53;;;;;;;0.60;0.47;;;24.00;64.70;;;;;;6212481;22;44870;-62
2022/08/05 11:20:33;;;;;;;0.30;0.30;;;24.00;64.80;;;;;;6212359;22;43622;-62
2022/08/05 11:23:44;;;;;;;0.52;0.43;;;24.00;64.80;;;;;;6212207;22;43727;-62
2022/08/05 11:26:31;;;;;;;0.70;0.57;;;24.00;64.80;;;;;;6212104;22;43268;-62
2022/08/05 11:29:04;;;;;;;0.20;0.20;;;24.00;64.80;;;;;;6212084;22;43744;-62
2022/08/05 11:31:42;;;;;;;1.02;0.47;;;24.00;64.80;;;;;;6211344;22;43932;-62
2022/08/05 11:34:38;;;;;;;0.50;0.50;;;24.00;64.80;;;;;;6212161;22;43256;-62
2022/08/05 11:37:05;;;;;;;0.32;0.30;;;24.00;64.80;;;;;;6211476;22;43241;-62
2022/08/05 11:39:53;;;;;;;0.50;0.50;;;24.10;64.70;;;;;;6212704;22;44767;-62
2022/08/05 11:42:35;;;;;;;1.17;0.40;;;24.10;64.60;;;;;;6212196;22;43927;-62
2022/08/05 11:45:09;;;;;;;1.30;0.60;;;24.10;64.60;;;;;;6211708;22;43355;-62
2022/08/05 11:47:53;;;;;;;0.38;0.38;;;24.10;64.60;;;;;;6189700;22;43308;-62
2022/08/05 11:50:21;;;;;;;1.15;0.57;;;24.10;64.50;;;;;;6211602;22;44766;-62
2022/08/05 11:52:51;;;;;;;0.65;0.50;;;24.10;64.60;;;;;;6212787;22;43238;-62
2022/08/05 11:55:24;;;;;;;0.47;0.30;;;24.10;64.70;;;;;;6211942;22;43209;-62
2022/08/05 11:58:05;;;;;;;0.70;0.40;;;24.10;64.70;;;;;;6208522;22;43308;-62
2022/08/05 12:00:39;;;;;;;1.17;0.43;;;24.20;64.70;;;;;;6211947;22;44677;-62
2022/08/05 12:03:23;;;;;;;0.43;0.30;;;24.10;64.60;;;;;;6211851;22;43934;-62
2022/08/05 12:06:03;;;;;;;0.75;0.50;;;24.20;64.50;;;;;;6210482;22;43283;-62
2022/08/05 12:08:46;;;;;;;0.70;0.30;;;24.20;64.50;;;;;;6210991;22;43412;-62
2022/08/05 12:11:23;;;;;;;0.52;0.50;;;24.20;64.30;;;;;;6211828;22;44746;-62
2022/08/05 12:13:58;;;;;;;0.85;0.55;;;24.20;64.40;;;;;;6211068;22;43240;-62
2022/08/05 12:16:38;;;;;;;0.60;0.45;;;24.30;64.30;;;;;;6212098;22;43317;-62
2022/08/05 12:19:09;;;;;;;0.40;0.40;;;24.30;64.20;;;;;;6211035;22;43304;-61
2022/08/05 12:21:57;;;;;;;0.73;0.40;;;24.30;64.20;;;;;;6210994;22;44915;-62
2022/08/05 12:24:27;;;;;;;0.40;0.40;;;24.30;64.30;;;;;;6211807;22;43899;-62
2022/08/05 12:26:56;;;;;;;0.75;0.50;;;24.30;64.40;;;;;;6211850;22;43245;-62
2022/08/05 12:29:26;;;;;;;0.50;0.50;;;24.30;64.40;;;;;;6212348;22;43445;-62
2022/08/05 12:31:59;;;;;;;0.60;0.50;;;24.30;64.40;;;;;;6212456;22;43815;-62
2022/08/05 12:34:33;;;;;;;1.98;0.75;;;24.40;64.30;;;;;;6211168;22;43184;-62
2022/08/05 12:37:12;;;;;;;0.65;0.60;;;24.40;64.30;;;;;;6212728;22;43223;-63
2022/08/05 12:39:57;;;;;;;0.50;0.50;;;24.40;64.30;;;;;;6211918;22;43276;-63
2022/08/05 12:42:38;;;;;;;1.17;0.70;;;24.40;65.00;;;;;;6211909;22;44894;-63
2022/08/05 12:45:08;;;;;;;1.88;0.70;;;24.40;64.30;;;;;;6211749;22;43947;-62
2022/08/05 12:47:40;;;;;;;0.68;0.60;;;24.40;64.30;;;;;;6211415;22;43181;-63
2022/08/05 12:50:27;;;;;;;1.20;0.60;;;24.40;64.10;;;;;;6189653;22;43234;-62
2022/08/05 12:52:58;;;;;;;0.70;0.60;;;24.40;64.30;;;;;;6212497;22;43956;-62
2022/08/05 12:55:28;;;;;;;0.80;0.55;;;24.40;64.40;;;;;;6210617;22;43705;-62
2022/08/05 12:58:01;;;;;;;0.60;0.60;;;24.40;64.50;;;;;;6212496;22;43308;-62
2022/08/05 13:00:50;;;;;;;0.50;0.50;;;24.40;64.30;;;;;;6211917;22;43259;-62
2022/08/05 13:03:38;;;;;;;0.95;0.68;;;24.40;64.30;;;;;;6213104;22;44640;-62
2022/08/05 13:06:16;;;;;;;1.48;1.13;;;24.40;64.20;;;;;;6213223;22;43895;-62
2022/08/05 13:08:46;;;;;;;0.60;0.60;;;24.40;64.20;;;;;;6212699;22;43237;-62
2022/08/05 13:11:21;;;;;;;0.50;0.50;;;24.40;64.20;;;;;;6213240;22;43472;-62
2022/08/05 13:14:16;;;;;;;1.80;0.60;;;24.40;64.30;;;;;;6213072;22;44665;-62
2022/08/05 13:16:57;;;;;;;1.75;0.88;;;24.40;64.30;;;;;;6212245;22;43939;-62
2022/08/05 13:19:27;;;;;;;0.93;0.57;;;24.30;63.90;;;;;;6213338;22;43268;-62
2022/08/05 13:22:14;;;;;;;0.75;0.60;;;24.30;63.70;;;;;;6212707;22;43309;-62
2022/08/05 13:24:57;;;;;;;0.55;0.52;;;24.30;64.60;;;;;;6212787;22;44907;-62
2022/08/05 13:27:42;;;;;;;0.50;0.50;;;24.30;64.10;;;;;;6212954;22;43868;-62
2022/08/05 13:30:20;;;;;;;1.05;0.47;;;24.40;64.30;;;;;;6212221;22;43213;-62
2022/08/05 13:33:02;;;;;;;0.57;0.50;;;24.40;64.20;;;;;;6213605;22;43274;-62
2022/08/05 13:35:30;;;;;;;0.65;0.60;;;24.40;64.20;;;;;;6213072;22;44920;-62
2022/08/05 13:38:19;;;;;;;0.50;0.50;;;24.40;64.20;;;;;;6212895;22;43266;-62
2022/08/05 13:40:58;;;;;;;1.17;0.60;;;24.30;64.30;;;;;;6213213;22;43312;-62
2022/08/05 13:43:26;;;;;;;0.60;0.55;;;24.40;64.20;;;;;;6212575;22;43285;-62
2022/08/05 13:46:14;;;;;;;0.90;0.52;;;24.40;64.20;;;;;;6212553;22;44014;-62
2022/08/05 13:48:56;;;;;;;0.63;0.55;;;24.40;64.30;;;;;;6213422;22;44019;-62